Eaton, Ohio
Current Conditions -  °F | °C
As of 5:55 PM on Wednesday 22 Oct 2014 (Local Time) from KMWO Reporting Station
Overcast Overcast  
Wind Chill: 55°   Ceiling: 2900
Heat Index: 55°   Visibility: 10mi
Dew Point: 42°   Wind: 7mph
Humidity: 62%   Direction: 50°NE
Pressure: 30.29"   Gusts: NA
Location:  39.75°N, 84.64°W
Report Text: KMWO 222155Z AUTO 05006KT 10SM OVC029 13/05 A3029 RMK AO2 T01250053
Loading
Personal Weather Stations






























Interactive Weather Map
Tropical Storm Tracking
New forecast layout! Learn more

10-Day Weather Forecast

Advertisements
Track Severe Weather on mobile